AFR43 KLAX-KPHX
Flight info
| Callsign | AFR43 |
|---|---|
| Flight time | N/A |
| Altitude | 33000 |
| Route | SEBBY3 DAG PRFUM WOTRO BRUSR1 |
| Aircraft | B742/H-SDFHIRWXY/L |
Departure
| Time | 2026-05-04 02:01 |
|---|---|
| Airport | Los Angeles International Airport (KLAX) |
Arrival
| Time | N/A |
|---|---|
| Airport | Phoenix Sky Harbor International Airport (KPHX) |
| Time | Latitude | Longitude | Altitude | Speed | Heading |
|---|---|---|---|---|---|
| 2026-05-04 01:38 | 33.93390 | -118.38213 | 106 ft | 0 kts | 219° |
| 2026-05-04 01:49 | 33.93395 | -118.38209 | 105 ft | 2 kts | 226° |
| 2026-05-04 01:49 | 33.93403 | -118.38193 | 105 ft | 2 kts | 249° |
| 2026-05-04 01:49 | 33.93407 | -118.38176 | 105 ft | 2 kts | 268° |
| 2026-05-04 01:49 | 33.93405 | -118.38158 | 105 ft | 2 kts | 288° |
| 2026-05-04 01:50 | 33.93398 | -118.38142 | 105 ft | 2 kts | 307° |
| 2026-05-04 01:50 | 33.93388 | -118.38129 | 105 ft | 2 kts | 327° |
| 2026-05-04 01:50 | 33.93374 | -118.38123 | 105 ft | 2 kts | 347° |
| 2026-05-04 01:50 | 33.93359 | -118.38121 | 105 ft | 2 kts | 4° |
| 2026-05-04 01:51 | 33.93356 | -118.38121 | 105 ft | 0 kts | 5° |
| 2026-05-04 01:57 | 33.93358 | -118.38121 | 105 ft | 1 kts | 5° |
| 2026-05-04 01:57 | 33.93388 | -118.38120 | 105 ft | 8 kts | 359° |
| 2026-05-04 01:57 | 33.93476 | -118.38123 | 105 ft | 16 kts | 358° |
| 2026-05-04 01:58 | 33.93593 | -118.38134 | 105 ft | 11 kts | 341° |
| 2026-05-04 01:58 | 33.93623 | -118.38188 | 105 ft | 6 kts | 280° |
| 2026-05-04 01:58 | 33.93623 | -118.38227 | 105 ft | 3 kts | 266° |
| 2026-05-04 01:58 | 33.93622 | -118.38243 | 105 ft | 0 kts | 275° |
| 2026-05-04 01:59 | 33.93622 | -118.38244 | 105 ft | 0 kts | 277° |
| 2026-05-04 01:59 | 33.93626 | -118.38257 | 105 ft | 2 kts | 306° |
| 2026-05-04 01:59 | 33.93629 | -118.38261 | 105 ft | 0 kts | 324° |
| 2026-05-04 02:00 | 33.93638 | -118.38268 | 105 ft | 4 kts | 329° |
| 2026-05-04 02:00 | 33.93683 | -118.38296 | 105 ft | 10 kts | 329° |
| 2026-05-04 02:00 | 33.93719 | -118.38403 | 106 ft | 27 kts | 270° |
| 2026-05-04 02:00 | 33.93671 | -118.38921 | 108 ft | 95 kts | 263° |
| 2026-05-04 02:01 | 33.93562 | -118.39949 | 120 ft | 152 kts | 263° |
| 2026-05-04 02:01 | 33.93419 | -118.41373 | 344 ft | 180 kts | 263° |
| 2026-05-04 02:01 | 33.93256 | -118.42889 | 855 ft | 190 kts | 261° |
| 2026-05-04 02:01 | 33.92977 | -118.44452 | 1542 ft | 192 kts | 250° |
| 2026-05-04 02:02 | 33.92482 | -118.45953 | 2148 ft | 201 kts | 243° |
| 2026-05-04 02:02 | 33.91639 | -118.47427 | 2480 ft | 225 kts | 231° |
| 2026-05-04 02:02 | 33.90678 | -118.48826 | 3210 ft | 213 kts | 234° |
| 2026-05-04 02:02 | 33.89763 | -118.50264 | 3608 ft | 226 kts | 234° |
| 2026-05-04 02:03 | 33.88777 | -118.51820 | 3995 ft | 240 kts | 234° |
| 2026-05-04 02:03 | 33.87725 | -118.53481 | 4382 ft | 256 kts | 234° |
| 2026-05-04 02:03 | 33.86619 | -118.55228 | 4742 ft | 267 kts | 233° |
| 2026-05-04 02:03 | 33.85509 | -118.56976 | 5092 ft | 259 kts | 234° |
| 2026-05-04 02:04 | 33.84404 | -118.58721 | 5582 ft | 266 kts | 234° |
| 2026-05-04 02:04 | 33.83244 | -118.60434 | 6050 ft | 268 kts | 221° |
| 2026-05-04 02:04 | 33.81579 | -118.61446 | 6541 ft | 272 kts | 191° |
| 2026-05-04 02:04 | 33.79718 | -118.61300 | 7019 ft | 277 kts | 162° |
| 2026-05-04 02:05 | 33.77975 | -118.60280 | 7509 ft | 280 kts | 153° |
| 2026-05-04 02:05 | 33.76268 | -118.59087 | 7998 ft | 283 kts | 152° |
| 2026-05-04 02:05 | 33.74589 | -118.57873 | 8475 ft | 285 kts | 152° |
| 2026-05-04 02:05 | 33.72884 | -118.56634 | 8959 ft | 286 kts | 152° |
| 2026-05-04 02:06 | 33.71202 | -118.55397 | 9432 ft | 288 kts | 152° |
| 2026-05-04 02:06 | 33.69498 | -118.54125 | 9912 ft | 289 kts | 152° |
| 2026-05-04 02:06 | 33.67896 | -118.52633 | 10383 ft | 297 kts | 132° |
| 2026-05-04 02:06 | 33.66969 | -118.50401 | 10868 ft | 307 kts | 107° |
| 2026-05-04 02:07 | 33.66542 | -118.47849 | 11360 ft | 312 kts | 102° |
| 2026-05-04 02:07 | 33.66209 | -118.45289 | 11836 ft | 316 kts | 102° |
| 2026-05-04 02:07 | 33.65882 | -118.42661 | 12320 ft | 318 kts | 101° |
| 2026-05-04 02:07 | 33.65559 | -118.40031 | 12800 ft | 321 kts | 102° |
| 2026-05-04 02:08 | 33.65249 | -118.37396 | 13273 ft | 325 kts | 101° |
| 2026-05-04 02:08 | 33.65016 | -118.34666 | 13743 ft | 330 kts | 91° |
| 2026-05-04 02:08 | 33.65390 | -118.31948 | 14209 ft | 339 kts | 72° |
| 2026-05-04 02:08 | 33.66402 | -118.29398 | 14678 ft | 345 kts | 59° |